sensor_id;sensor_type;location;lat;lon;timestamp;pressure;altitude;pressure_sealevel;temperature;humidity
23229;BME280;11783;50.350;6.576;2023-08-06T00:01:42;95162.25;;;13.91;100.00
23229;BME280;11783;50.350;6.576;2023-08-06T00:04:07;95150.94;;;14.00;100.00
23229;BME280;11783;50.350;6.576;2023-08-06T00:06:33;95151.81;;;13.95;100.00
23229;BME280;11783;50.350;6.576;2023-08-06T00:08:58;95165.09;;;14.00;100.00
23229;BME280;11783;50.350;6.576;2023-08-06T00:11:24;95152.38;;;13.92;100.00
23229;BME280;11783;50.350;6.576;2023-08-06T00:13:49;95151.00;;;13.94;100.00
23229;BME280;11783;50.350;6.576;2023-08-06T00:16:14;95145.94;;;13.93;100.00
23229;BME280;11783;50.350;6.576;2023-08-06T00:18:40;95147.78;;;13.79;100.00
23229;BME280;11783;50.350;6.576;2023-08-06T00:21:06;95142.25;;;13.89;100.00
23229;BME280;11783;50.350;6.576;2023-08-06T00:23:31;95144.72;;;13.85;100.00
23229;BME280;11783;50.350;6.576;2023-08-06T00:25:56;95140.19;;;13.86;100.00
23229;BME280;11783;50.350;6.576;2023-08-06T00:28:22;95133.38;;;13.93;100.00
23229;BME280;11783;50.350;6.576;2023-08-06T00:30:54;95136.78;;;13.99;100.00
23229;BME280;11783;50.350;6.576;2023-08-06T00:33:20;95131.50;;;13.94;100.00
23229;BME280;11783;50.350;6.576;2023-08-06T00:35:46;95138.94;;;13.97;100.00
23229;BME280;11783;50.350;6.576;2023-08-06T00:38:12;95138.22;;;13.91;100.00
23229;BME280;11783;50.350;6.576;2023-08-06T00:40:37;95132.81;;;13.97;100.00
23229;BME280;11783;50.350;6.576;2023-08-06T00:43:03;95133.13;;;13.95;100.00
23229;BME280;11783;50.350;6.576;2023-08-06T00:45:28;95130.28;;;14.05;100.00
23229;BME280;11783;50.350;6.576;2023-08-06T00:47:55;95129.84;;;13.98;100.00
23229;BME280;11783;50.350;6.576;2023-08-06T00:50:20;95127.03;;;13.89;100.00
23229;BME280;11783;50.350;6.576;2023-08-06T00:52:48;95126.75;;;13.91;100.00
23229;BME280;11783;50.350;6.576;2023-08-06T00:55:14;95128.84;;;13.75;100.00
23229;BME280;11783;50.350;6.576;2023-08-06T00:57:40;95124.38;;;13.89;100.00
23229;BME280;11783;50.350;6.576;2023-08-06T01:00:07;95115.75;;;13.92;100.00
23229;BME280;11783;50.350;6.576;2023-08-06T01:02:33;95117.19;;;14.04;100.00
23229;BME280;11783;50.350;6.576;2023-08-06T01:04:59;95118.59;;;14.01;100.00
23229;BME280;11783;50.350;6.576;2023-08-06T01:15:46;95101.75;;;14.01;100.00
23229;BME280;11783;50.350;6.576;2023-08-06T01:18:12;95108.09;;;14.05;100.00
23229;BME280;11783;50.350;6.576;2023-08-06T01:20:38;95105.63;;;14.08;100.00
23229;BME280;11783;50.350;6.576;2023-08-06T01:23:03;95105.34;;;14.10;100.00
23229;BME280;11783;50.350;6.576;2023-08-06T01:25:37;95106.88;;;14.16;100.00
23229;BME280;11783;50.350;6.576;2023-08-06T01:28:13;95096.91;;;14.03;100.00
23229;BME280;11783;50.350;6.576;2023-08-06T01:30:41;95105.44;;;14.05;100.00
23229;BME280;11783;50.350;6.576;2023-08-06T01:33:10;95099.69;;;14.11;100.00
23229;BME280;11783;50.350;6.576;2023-08-06T01:35:40;95100.78;;;14.10;100.00
23229;BME280;11783;50.350;6.576;2023-08-06T01:38:07;95098.13;;;14.10;100.00
23229;BME280;11783;50.350;6.576;2023-08-06T01:40:33;95103.16;;;14.12;100.00
23229;BME280;11783;50.350;6.576;2023-08-06T01:42:59;95095.28;;;14.20;100.00
23229;BME280;11783;50.350;6.576;2023-08-06T01:45:24;95094.59;;;14.15;100.00
23229;BME280;11783;50.350;6.576;2023-08-06T01:47:50;95084.91;;;14.19;100.00
23229;BME280;11783;50.350;6.576;2023-08-06T01:50:15;95088.84;;;14.21;100.00
23229;BME280;11783;50.350;6.576;2023-08-06T01:52:41;95083.13;;;14.14;100.00
23229;BME280;11783;50.350;6.576;2023-08-06T01:55:06;95086.44;;;14.06;100.00
23229;BME280;11783;50.350;6.576;2023-08-06T01:57:32;95082.59;;;14.12;100.00
23229;BME280;11783;50.350;6.576;2023-08-06T01:59:57;95080.22;;;14.11;100.00
23229;BME280;11783;50.350;6.576;2023-08-06T02:02:23;95074.88;;;14.11;100.00
23229;BME280;11783;50.350;6.576;2023-08-06T02:04:48;95077.78;;;14.14;100.00
23229;BME280;11783;50.350;6.576;2023-08-06T02:07:14;95078.25;;;14.16;100.00
23229;BME280;11783;50.350;6.576;2023-08-06T02:09:39;95070.75;;;14.18;100.00
23229;BME280;11783;50.350;6.576;2023-08-06T02:12:05;95074.50;;;14.17;100.00
23229;BME280;11783;50.350;6.576;2023-08-06T02:14:31;95072.44;;;14.14;100.00
23229;BME280;11783;50.350;6.576;2023-08-06T02:16:56;95067.47;;;14.21;100.00
23229;BME280;11783;50.350;6.576;2023-08-06T02:19:22;95059.66;;;14.25;100.00
23229;BME280;11783;50.350;6.576;2023-08-06T02:21:47;95058.63;;;14.07;100.00
23229;BME280;11783;50.350;6.576;2023-08-06T02:24:13;95064.91;;;14.16;100.00
23229;BME280;11783;50.350;6.576;2023-08-06T02:26:38;95051.53;;;14.16;100.00
23229;BME280;11783;50.350;6.576;2023-08-06T02:29:04;95059.25;;;14.18;100.00
23229;BME280;11783;50.350;6.576;2023-08-06T02:31:29;95059.38;;;14.27;100.00
23229;BME280;11783;50.350;6.576;2023-08-06T02:33:54;95058.09;;;14.24;100.00
23229;BME280;11783;50.350;6.576;2023-08-06T02:36:20;95050.38;;;14.36;100.00
23229;BME280;11783;50.350;6.576;2023-08-06T02:38:45;95046.50;;;14.29;100.00
23229;BME280;11783;50.350;6.576;2023-08-06T02:41:11;95036.31;;;14.31;100.00
23229;BME280;11783;50.350;6.576;2023-08-06T02:43:37;95034.13;;;14.19;100.00
23229;BME280;11783;50.350;6.576;2023-08-06T02:46:03;95035.88;;;14.10;100.00
23229;BME280;11783;50.350;6.576;2023-08-06T02:48:28;95043.00;;;14.01;100.00
23229;BME280;11783;50.350;6.576;2023-08-06T02:50:57;95032.84;;;13.84;100.00
23229;BME280;11783;50.350;6.576;2023-08-06T02:53:24;95030.69;;;13.86;100.00
23229;BME280;11783;50.350;6.576;2023-08-06T02:55:50;95032.16;;;13.92;100.00
23229;BME280;11783;50.350;6.576;2023-08-06T02:58:16;95039.19;;;13.88;100.00
23229;BME280;11783;50.350;6.576;2023-08-06T03:00:43;95028.88;;;13.81;100.00
23229;BME280;11783;50.350;6.576;2023-08-06T03:03:09;95026.72;;;13.83;100.00
23229;BME280;11783;50.350;6.576;2023-08-06T03:05:35;95035.94;;;13.91;100.00
23229;BME280;11783;50.350;6.576;2023-08-06T03:08:00;95034.28;;;13.95;100.00
23229;BME280;11783;50.350;6.576;2023-08-06T03:10:26;95030.84;;;14.08;100.00
23229;BME280;11783;50.350;6.576;2023-08-06T03:12:51;95022.53;;;14.10;100.00
23229;BME280;11783;50.350;6.576;2023-08-06T03:15:17;95020.34;;;14.12;100.00
23229;BME280;11783;50.350;6.576;2023-08-06T03:17:42;95024.28;;;14.01;100.00
23229;BME280;11783;50.350;6.576;2023-08-06T03:20:09;95016.38;;;13.96;100.00
23229;BME280;11783;50.350;6.576;2023-08-06T03:22:35;95016.00;;;14.02;100.00
23229;BME280;11783;50.350;6.576;2023-08-06T03:25:00;95015.88;;;14.07;100.00
23229;BME280;11783;50.350;6.576;2023-08-06T03:27:26;95023.31;;;14.10;100.00
23229;BME280;11783;50.350;6.576;2023-08-06T03:29:51;95018.84;;;14.06;100.00
23229;BME280;11783;50.350;6.576;2023-08-06T03:32:17;95013.28;;;13.88;100.00
23229;BME280;11783;50.350;6.576;2023-08-06T03:34:42;95018.72;;;13.83;100.00
23229;BME280;11783;50.350;6.576;2023-08-06T03:37:08;95019.69;;;13.87;100.00
23229;BME280;11783;50.350;6.576;2023-08-06T03:39:33;95015.03;;;13.79;100.00
23229;BME280;11783;50.350;6.576;2023-08-06T03:41:59;95008.03;;;13.83;100.00
23229;BME280;11783;50.350;6.576;2023-08-06T03:44:24;95007.94;;;13.88;100.00
23229;BME280;11783;50.350;6.576;2023-08-06T03:46:52;95011.59;;;13.92;100.00
23229;BME280;11783;50.350;6.576;2023-08-06T03:49:17;95005.75;;;13.90;100.00
23229;BME280;11783;50.350;6.576;2023-08-06T03:51:43;95007.63;;;13.90;100.00
23229;BME280;11783;50.350;6.576;2023-08-06T03:54:08;95003.09;;;13.90;100.00
23229;BME280;11783;50.350;6.576;2023-08-06T03:56:33;95012.88;;;13.81;100.00
23229;BME280;11783;50.350;6.576;2023-08-06T03:58:59;95003.97;;;13.86;100.00
23229;BME280;11783;50.350;6.576;2023-08-06T04:01:24;95014.38;;;13.87;100.00
23229;BME280;11783;50.350;6.576;2023-08-06T04:03:50;95020.41;;;13.93;100.00
23229;BME280;11783;50.350;6.576;2023-08-06T04:06:15;95019.09;;;13.90;100.00
23229;BME280;11783;50.350;6.576;2023-08-06T04:08:41;95014.50;;;13.96;100.00
23229;BME280;11783;50.350;6.576;2023-08-06T04:11:06;95014.59;;;14.05;100.00
23229;BME280;11783;50.350;6.576;2023-08-06T04:13:32;95016.59;;;14.13;100.00
23229;BME280;11783;50.350;6.576;2023-08-06T04:16:04;95018.47;;;14.12;100.00
23229;BME280;11783;50.350;6.576;2023-08-06T04:18:29;95011.88;;;14.23;100.00
23229;BME280;11783;50.350;6.576;2023-08-06T04:20:55;95013.25;;;14.21;100.00
23229;BME280;11783;50.350;6.576;2023-08-06T04:23:22;95011.66;;;14.20;100.00
23229;BME280;11783;50.350;6.576;2023-08-06T04:25:47;95015.09;;;14.07;100.00
23229;BME280;11783;50.350;6.576;2023-08-06T04:28:13;95012.13;;;14.08;100.00
23229;BME280;11783;50.350;6.576;2023-08-06T04:30:38;95015.19;;;14.02;100.00
23229;BME280;11783;50.350;6.576;2023-08-06T04:33:04;95013.81;;;14.04;100.00
23229;BME280;11783;50.350;6.576;2023-08-06T04:35:29;95014.94;;;13.84;100.00
23229;BME280;11783;50.350;6.576;2023-08-06T04:37:55;95008.13;;;13.92;100.00
23229;BME280;11783;50.350;6.576;2023-08-06T04:40:20;95017.88;;;14.02;100.00
23229;BME280;11783;50.350;6.576;2023-08-06T04:42:46;95010.16;;;14.00;100.00
23229;BME280;11783;50.350;6.576;2023-08-06T04:45:11;95013.13;;;13.99;100.00
23229;BME280;11783;50.350;6.576;2023-08-06T04:47:37;95018.16;;;14.00;100.00
23229;BME280;11783;50.350;6.576;2023-08-06T04:50:02;95011.94;;;14.05;100.00
23229;BME280;11783;50.350;6.576;2023-08-06T04:52:28;95015.19;;;14.02;100.00
23229;BME280;11783;50.350;6.576;2023-08-06T04:54:56;95019.84;;;14.10;100.00
23229;BME280;11783;50.350;6.576;2023-08-06T04:57:22;95022.75;;;14.13;100.00
23229;BME280;11783;50.350;6.576;2023-08-06T04:59:47;95027.88;;;14.10;100.00
23229;BME280;11783;50.350;6.576;2023-08-06T05:02:12;95030.22;;;13.98;100.00
23229;BME280;11783;50.350;6.576;2023-08-06T05:04:38;95031.06;;;13.79;100.00
23229;BME280;11783;50.350;6.576;2023-08-06T05:07:05;95034.88;;;13.73;100.00
23229;BME280;11783;50.350;6.576;2023-08-06T05:09:30;95032.72;;;13.75;100.00
23229;BME280;11783;50.350;6.576;2023-08-06T05:11:56;95038.44;;;13.69;100.00
23229;BME280;11783;50.350;6.576;2023-08-06T05:14:21;95031.50;;;13.68;100.00
23229;BME280;11783;50.350;6.576;2023-08-06T05:16:47;95042.19;;;13.68;100.00
23229;BME280;11783;50.350;6.576;2023-08-06T05:19:12;95043.47;;;13.70;100.00
23229;BME280;11783;50.350;6.576;2023-08-06T05:21:38;95040.06;;;13.83;100.00
23229;BME280;11783;50.350;6.576;2023-08-06T05:24:03;95044.31;;;13.84;100.00
23229;BME280;11783;50.350;6.576;2023-08-06T05:26:29;95044.53;;;13.88;100.00
23229;BME280;11783;50.350;6.576;2023-08-06T05:28:54;95051.06;;;13.82;100.00
23229;BME280;11783;50.350;6.576;2023-08-06T05:31:20;95049.88;;;13.88;100.00
23229;BME280;11783;50.350;6.576;2023-08-06T05:33:45;95053.22;;;13.80;100.00
23229;BME280;11783;50.350;6.576;2023-08-06T05:36:10;95054.44;;;13.69;100.00
23229;BME280;11783;50.350;6.576;2023-08-06T05:38:36;95056.75;;;13.75;100.00
23229;BME280;11783;50.350;6.576;2023-08-06T05:41:02;95057.19;;;13.82;100.00
23229;BME280;11783;50.350;6.576;2023-08-06T05:43:27;95059.34;;;13.80;100.00
23229;BME280;11783;50.350;6.576;2023-08-06T05:45:52;95055.31;;;13.83;100.00
23229;BME280;11783;50.350;6.576;2023-08-06T05:48:18;95056.00;;;13.88;100.00
23229;BME280;11783;50.350;6.576;2023-08-06T05:50:43;95056.50;;;13.90;100.00
23229;BME280;11783;50.350;6.576;2023-08-06T05:53:09;95053.19;;;13.99;100.00
23229;BME280;11783;50.350;6.576;2023-08-06T05:55:34;95054.19;;;14.03;100.00
23229;BME280;11783;50.350;6.576;2023-08-06T05:58:00;95049.91;;;14.02;100.00
23229;BME280;11783;50.350;6.576;2023-08-06T06:00:26;95055.66;;;14.09;100.00
23229;BME280;11783;50.350;6.576;2023-08-06T06:02:51;95050.03;;;14.10;100.00
23229;BME280;11783;50.350;6.576;2023-08-06T06:05:17;95054.13;;;14.21;100.00
23229;BME280;11783;50.350;6.576;2023-08-06T06:07:43;95050.25;;;14.28;100.00
23229;BME280;11783;50.350;6.576;2023-08-06T06:10:09;95053.06;;;14.36;100.00
23229;BME280;11783;50.350;6.576;2023-08-06T06:12:35;95060.28;;;14.36;100.00
23229;BME280;11783;50.350;6.576;2023-08-06T06:15:00;95059.09;;;14.42;100.00
23229;BME280;11783;50.350;6.576;2023-08-06T06:17:27;95049.72;;;14.44;100.00
23229;BME280;11783;50.350;6.576;2023-08-06T06:19:52;95055.25;;;14.48;100.00
23229;BME280;11783;50.350;6.576;2023-08-06T06:22:18;95056.16;;;14.43;100.00
23229;BME280;11783;50.350;6.576;2023-08-06T06:24:43;95059.16;;;14.56;100.00
23229;BME280;11783;50.350;6.576;2023-08-06T06:27:09;95065.41;;;14.51;100.00
23229;BME280;11783;50.350;6.576;2023-08-06T06:29:34;95068.94;;;14.60;100.00
23229;BME280;11783;50.350;6.576;2023-08-06T06:31:59;95075.22;;;14.69;100.00
23229;BME280;11783;50.350;6.576;2023-08-06T06:34:25;95075.00;;;14.79;100.00
23229;BME280;11783;50.350;6.576;2023-08-06T06:36:50;95078.34;;;14.85;100.00
23229;BME280;11783;50.350;6.576;2023-08-06T06:39:17;95081.03;;;14.85;100.00
23229;BME280;11783;50.350;6.576;2023-08-06T06:41:43;95077.69;;;14.93;100.00
23229;BME280;11783;50.350;6.576;2023-08-06T06:44:09;95080.53;;;14.97;100.00
23229;BME280;11783;50.350;6.576;2023-08-06T06:46:35;95076.47;;;14.99;100.00
23229;BME280;11783;50.350;6.576;2023-08-06T06:49:00;95087.69;;;15.01;100.00
23229;BME280;11783;50.350;6.576;2023-08-06T06:51:26;95085.31;;;15.00;100.00
23229;BME280;11783;50.350;6.576;2023-08-06T06:53:51;95083.72;;;14.99;100.00
23229;BME280;11783;50.350;6.576;2023-08-06T06:56:16;95081.16;;;14.94;100.00
23229;BME280;11783;50.350;6.576;2023-08-06T06:58:42;95084.31;;;14.96;100.00
23229;BME280;11783;50.350;6.576;2023-08-06T07:01:08;95086.69;;;14.97;100.00
23229;BME280;11783;50.350;6.576;2023-08-06T07:03:36;95091.06;;;14.93;100.00
23229;BME280;11783;50.350;6.576;2023-08-06T07:06:01;95087.19;;;14.99;100.00
23229;BME280;11783;50.350;6.576;2023-08-06T07:08:27;95094.13;;;15.00;100.00
23229;BME280;11783;50.350;6.576;2023-08-06T07:11:06;95096.31;;;14.98;100.00
23229;BME280;11783;50.350;6.576;2023-08-06T07:13:33;95100.38;;;14.96;100.00
23229;BME280;11783;50.350;6.576;2023-08-06T07:15:59;95107.69;;;15.04;100.00
23229;BME280;11783;50.350;6.576;2023-08-06T07:18:24;95110.59;;;15.07;100.00
23229;BME280;11783;50.350;6.576;2023-08-06T07:20:50;95107.91;;;15.07;100.00
23229;BME280;11783;50.350;6.576;2023-08-06T07:23:17;95107.69;;;15.04;100.00
23229;BME280;11783;50.350;6.576;2023-08-06T07:25:42;95111.94;;;15.05;100.00
23229;BME280;11783;50.350;6.576;2023-08-06T07:28:09;95124.16;;;15.11;100.00
23229;BME280;11783;50.350;6.576;2023-08-06T07:30:38;95120.88;;;15.14;100.00
23229;BME280;11783;50.350;6.576;2023-08-06T07:33:04;95126.53;;;15.26;100.00
23229;BME280;11783;50.350;6.576;2023-08-06T07:35:29;95120.88;;;15.28;100.00
23229;BME280;11783;50.350;6.576;2023-08-06T07:37:55;95120.88;;;15.28;100.00
23229;BME280;11783;50.350;6.576;2023-08-06T07:40:20;95133.53;;;15.36;100.00
23229;BME280;11783;50.350;6.576;2023-08-06T07:42:46;95142.56;;;15.40;100.00
23229;BME280;11783;50.350;6.576;2023-08-06T07:45:11;95144.63;;;15.43;100.00
23229;BME280;11783;50.350;6.576;2023-08-06T07:47:37;95143.56;;;15.44;100.00
23229;BME280;11783;50.350;6.576;2023-08-06T07:50:02;95148.13;;;15.43;100.00
23229;BME280;11783;50.350;6.576;2023-08-06T07:52:28;95142.66;;;15.35;100.00
23229;BME280;11783;50.350;6.576;2023-08-06T07:54:53;95146.31;;;15.39;100.00
23229;BME280;11783;50.350;6.576;2023-08-06T07:57:19;95154.06;;;15.40;100.00
23229;BME280;11783;50.350;6.576;2023-08-06T07:59:44;95157.44;;;15.46;100.00
23229;BME280;11783;50.350;6.576;2023-08-06T08:02:10;95159.72;;;15.39;100.00
23229;BME280;11783;50.350;6.576;2023-08-06T08:04:35;95171.50;;;15.24;100.00
23229;BME280;11783;50.350;6.576;2023-08-06T08:07:01;95168.56;;;15.26;100.00
23229;BME280;11783;50.350;6.576;2023-08-06T08:09:26;95173.22;;;15.06;100.00
23229;BME280;11783;50.350;6.576;2023-08-06T08:11:52;95174.09;;;14.88;100.00
23229;BME280;11783;50.350;6.576;2023-08-06T08:14:17;95176.94;;;14.78;100.00
23229;BME280;11783;50.350;6.576;2023-08-06T08:16:43;95178.97;;;14.67;100.00
23229;BME280;11783;50.350;6.576;2023-08-06T08:19:08;95189.38;;;14.69;100.00
23229;BME280;11783;50.350;6.576;2023-08-06T08:21:34;95194.16;;;14.72;100.00
23229;BME280;11783;50.350;6.576;2023-08-06T08:24:00;95188.00;;;14.58;100.00
23229;BME280;11783;50.350;6.576;2023-08-06T08:26:26;95196.16;;;14.47;100.00
23229;BME280;11783;50.350;6.576;2023-08-06T08:28:53;95203.25;;;14.38;100.00
23229;BME280;11783;50.350;6.576;2023-08-06T08:31:19;95192.78;;;14.23;100.00
23229;BME280;11783;50.350;6.576;2023-08-06T08:33:44;95206.06;;;14.28;100.00
23229;BME280;11783;50.350;6.576;2023-08-06T08:36:10;95207.75;;;13.86;100.00
23229;BME280;11783;50.350;6.576;2023-08-06T08:38:35;95215.38;;;13.93;100.00
23229;BME280;11783;50.350;6.576;2023-08-06T08:41:01;95212.50;;;13.89;100.00
23229;BME280;11783;50.350;6.576;2023-08-06T08:43:27;95211.72;;;13.89;100.00
23229;BME280;11783;50.350;6.576;2023-08-06T08:45:54;95216.19;;;13.93;100.00
23229;BME280;11783;50.350;6.576;2023-08-06T08:48:21;95218.59;;;13.95;100.00
23229;BME280;11783;50.350;6.576;2023-08-06T08:50:49;95219.31;;;14.01;100.00
23229;BME280;11783;50.350;6.576;2023-08-06T08:53:16;95220.38;;;14.00;100.00
23229;BME280;11783;50.350;6.576;2023-08-06T08:55:43;95220.09;;;14.01;100.00
23229;BME280;11783;50.350;6.576;2023-08-06T08:58:10;95235.34;;;14.01;100.00
23229;BME280;11783;50.350;6.576;2023-08-06T09:00:35;95238.13;;;14.09;100.00
23229;BME280;11783;50.350;6.576;2023-08-06T09:05:29;95243.47;;;14.09;100.00
23229;BME280;11783;50.350;6.576;2023-08-06T09:08:02;95248.25;;;14.12;100.00
23229;BME280;11783;50.350;6.576;2023-08-06T09:10:27;95257.06;;;14.13;100.00
23229;BME280;11783;50.350;6.576;2023-08-06T09:12:53;95264.44;;;14.02;100.00
23229;BME280;11783;50.350;6.576;2023-08-06T09:15:20;95272.56;;;13.92;100.00
23229;BME280;11783;50.350;6.576;2023-08-06T09:17:49;95276.69;;;13.84;100.00
23229;BME280;11783;50.350;6.576;2023-08-06T09:20:15;95282.09;;;13.79;100.00
23229;BME280;11783;50.350;6.576;2023-08-06T09:22:41;95276.69;;;13.84;100.00
23229;BME280;11783;50.350;6.576;2023-08-06T09:25:07;95286.31;;;13.61;100.00
23229;BME280;11783;50.350;6.576;2023-08-06T09:27:38;95281.34;;;13.74;100.00
23229;BME280;11783;50.350;6.576;2023-08-06T09:30:06;95300.16;;;13.63;100.00
23229;BME280;11783;50.350;6.576;2023-08-06T09:32:48;95294.59;;;13.60;100.00
23229;BME280;11783;50.350;6.576;2023-08-06T09:35:17;95295.63;;;13.64;100.00
23229;BME280;11783;50.350;6.576;2023-08-06T09:37:43;95299.28;;;13.68;100.00
23229;BME280;11783;50.350;6.576;2023-08-06T09:40:30;95305.03;;;13.80;100.00
23229;BME280;11783;50.350;6.576;2023-08-06T09:42:57;95310.97;;;13.77;100.00
23229;BME280;11783;50.350;6.576;2023-08-06T09:45:24;95303.88;;;13.86;100.00
23229;BME280;11783;50.350;6.576;2023-08-06T09:47:57;95309.16;;;13.91;100.00
23229;BME280;11783;50.350;6.576;2023-08-06T09:50:23;95317.72;;;14.12;100.00
23229;BME280;11783;50.350;6.576;2023-08-06T09:52:53;95316.66;;;14.13;100.00
23229;BME280;11783;50.350;6.576;2023-08-06T09:55:20;95319.84;;;14.15;100.00
23229;BME280;11783;50.350;6.576;2023-08-06T09:57:47;95330.75;;;14.19;100.00
23229;BME280;11783;50.350;6.576;2023-08-06T10:00:12;95324.09;;;14.16;100.00
23229;BME280;11783;50.350;6.576;2023-08-06T10:02:39;95334.63;;;14.27;100.00
23229;BME280;11783;50.350;6.576;2023-08-06T10:05:08;95339.41;;;14.30;100.00
23229;BME280;11783;50.350;6.576;2023-08-06T10:07:34;95348.16;;;14.35;100.00
23229;BME280;11783;50.350;6.576;2023-08-06T10:09:59;95352.94;;;14.38;100.00
23229;BME280;11783;50.350;6.576;2023-08-06T10:12:28;95354.72;;;14.24;100.00
23229;BME280;11783;50.350;6.576;2023-08-06T10:14:57;95357.81;;;14.31;100.00
23229;BME280;11783;50.350;6.576;2023-08-06T10:17:25;95363.69;;;14.33;100.00
23229;BME280;11783;50.350;6.576;2023-08-06T10:19:51;95364.91;;;14.22;100.00
23229;BME280;11783;50.350;6.576;2023-08-06T10:22:20;95360.22;;;14.33;100.00
23229;BME280;11783;50.350;6.576;2023-08-06T10:24:58;95367.00;;;14.25;100.00
23229;BME280;11783;50.350;6.576;2023-08-06T10:27:30;95360.78;;;14.30;100.00
23229;BME280;11783;50.350;6.576;2023-08-06T10:30:24;95377.69;;;14.25;100.00
23229;BME280;11783;50.350;6.576;2023-08-06T10:32:51;95376.47;;;14.17;100.00
23229;BME280;11783;50.350;6.576;2023-08-06T10:35:43;95382.19;;;14.06;100.00
23229;BME280;11783;50.350;6.576;2023-08-06T10:41:02;95385.72;;;14.01;100.00
23229;BME280;11783;50.350;6.576;2023-08-06T10:43:32;95393.22;;;13.99;100.00
23229;BME280;11783;50.350;6.576;2023-08-06T10:45:59;95401.75;;;14.01;100.00
23229;BME280;11783;50.350;6.576;2023-08-06T10:48:35;95403.34;;;13.78;100.00
23229;BME280;11783;50.350;6.576;2023-08-06T10:51:02;95402.88;;;13.71;100.00
23229;BME280;11783;50.350;6.576;2023-08-06T10:53:27;95410.19;;;13.60;100.00
23229;BME280;11783;50.350;6.576;2023-08-06T10:55:53;95406.38;;;13.67;100.00
23229;BME280;11783;50.350;6.576;2023-08-06T10:58:18;95400.81;;;13.63;100.00
23229;BME280;11783;50.350;6.576;2023-08-06T11:00:44;95408.59;;;13.59;100.00
23229;BME280;11783;50.350;6.576;2023-08-06T11:03:09;95406.72;;;13.60;100.00
23229;BME280;11783;50.350;6.576;2023-08-06T11:05:35;95412.81;;;13.66;100.00
23229;BME280;11783;50.350;6.576;2023-08-06T11:08:01;95420.31;;;13.63;100.00
23229;BME280;11783;50.350;6.576;2023-08-06T11:10:26;95412.28;;;13.63;100.00
23229;BME280;11783;50.350;6.576;2023-08-06T11:12:52;95409.78;;;13.72;100.00
23229;BME280;11783;50.350;6.576;2023-08-06T11:15:20;95422.84;;;13.79;100.00
23229;BME280;11783;50.350;6.576;2023-08-06T11:17:46;95407.75;;;13.64;100.00
23229;BME280;11783;50.350;6.576;2023-08-06T11:20:11;95422.69;;;13.65;100.00
23229;BME280;11783;50.350;6.576;2023-08-06T11:22:37;95428.25;;;13.69;100.00
23229;BME280;11783;50.350;6.576;2023-08-06T11:25:05;95424.78;;;13.68;100.00
23229;BME280;11783;50.350;6.576;2023-08-06T11:27:30;95435.53;;;13.63;100.00
23229;BME280;11783;50.350;6.576;2023-08-06T11:29:56;95427.56;;;13.58;100.00
23229;BME280;11783;50.350;6.576;2023-08-06T11:32:21;95436.03;;;13.65;100.00
23229;BME280;11783;50.350;6.576;2023-08-06T11:34:47;95437.06;;;13.69;100.00
23229;BME280;11783;50.350;6.576;2023-08-06T11:37:12;95436.00;;;13.70;100.00
23229;BME280;11783;50.350;6.576;2023-08-06T11:39:38;95435.25;;;13.64;100.00
23229;BME280;11783;50.350;6.576;2023-08-06T11:42:06;95434.16;;;13.66;100.00
23229;BME280;11783;50.350;6.576;2023-08-06T11:44:35;95439.50;;;13.66;100.00
23229;BME280;11783;50.350;6.576;2023-08-06T11:47:03;95448.38;;;13.61;100.00
23229;BME280;11783;50.350;6.576;2023-08-06T11:54:41;95445.28;;;13.78;100.00
23229;BME280;11783;50.350;6.576;2023-08-06T11:57:08;95450.94;;;13.71;100.00
23229;BME280;11783;50.350;6.576;2023-08-06T11:59:33;95475.47;;;13.73;100.00
23229;BME280;11783;50.350;6.576;2023-08-06T12:02:03;95462.00;;;13.59;100.00
23229;BME280;11783;50.350;6.576;2023-08-06T12:04:31;95469.16;;;13.64;100.00
23229;BME280;11783;50.350;6.576;2023-08-06T12:07:04;95464.38;;;13.61;100.00
23229;BME280;11783;50.350;6.576;2023-08-06T12:09:30;95462.47;;;13.67;100.00
23229;BME280;11783;50.350;6.576;2023-08-06T12:11:56;95466.72;;;13.68;100.00
23229;BME280;11783;50.350;6.576;2023-08-06T12:14:21;95482.06;;;13.52;100.00
23229;BME280;11783;50.350;6.576;2023-08-06T12:16:48;95484.78;;;13.47;100.00
23229;BME280;11783;50.350;6.576;2023-08-06T12:19:14;95493.59;;;13.47;100.00
23229;BME280;11783;50.350;6.576;2023-08-06T12:21:39;95481.00;;;13.53;100.00
23229;BME280;11783;50.350;6.576;2023-08-06T12:24:04;95480.28;;;13.42;100.00
23229;BME280;11783;50.350;6.576;2023-08-06T12:26:31;95497.97;;;13.33;100.00
23229;BME280;11783;50.350;6.576;2023-08-06T12:28:56;95491.53;;;13.39;100.00
23229;BME280;11783;50.350;6.576;2023-08-06T12:31:22;95493.34;;;13.44;100.00
23229;BME280;11783;50.350;6.576;2023-08-06T12:33:48;95485.25;;;13.54;100.00
23229;BME280;11783;50.350;6.576;2023-08-06T12:36:13;95495.94;;;13.54;100.00
23229;BME280;11783;50.350;6.576;2023-08-06T12:38:38;95489.31;;;13.46;100.00
23229;BME280;11783;50.350;6.576;2023-08-06T12:41:04;95489.56;;;13.50;100.00
23229;BME280;11783;50.350;6.576;2023-08-06T12:43:29;95490.06;;;13.52;100.00
23229;BME280;11783;50.350;6.576;2023-08-06T12:45:55;95491.72;;;13.48;100.00
23229;BME280;11783;50.350;6.576;2023-08-06T12:48:20;95516.84;;;13.42;100.00
23229;BME280;11783;50.350;6.576;2023-08-06T12:50:46;95508.88;;;13.37;100.00
23229;BME280;11783;50.350;6.576;2023-08-06T12:53:11;95508.91;;;13.31;100.00
23229;BME280;11783;50.350;6.576;2023-08-06T12:55:36;95511.00;;;13.40;100.00
23229;BME280;11783;50.350;6.576;2023-08-06T12:58:02;95519.00;;;13.40;100.00
23229;BME280;11783;50.350;6.576;2023-08-06T13:00:27;95520.88;;;13.39;100.00
23229;BME280;11783;50.350;6.576;2023-08-06T13:02:53;95524.03;;;13.46;100.00
23229;BME280;11783;50.350;6.576;2023-08-06T13:05:18;95539.84;;;13.32;100.00